createdAt,value
2022-07-27T00:02:12.353Z,26.88
2022-07-27T00:07:19.536Z,26.75
2022-07-27T00:12:26.745Z,26.74
2022-07-27T00:17:33.934Z,26.67
2022-07-27T00:22:41.338Z,26.62
2022-07-27T00:27:48.747Z,26.52
2022-07-27T00:32:56.004Z,26.43
2022-07-27T00:38:03.232Z,26.35
2022-07-27T00:43:10.445Z,26.27
2022-07-27T00:48:17.703Z,26.25
2022-07-27T00:53:24.911Z,26.17
2022-07-27T00:58:32.107Z,26.07
2022-07-27T01:03:39.965Z,26.14
2022-07-27T01:08:46.572Z,26.03
2022-07-27T01:13:54.729Z,25.99
2022-07-27T01:19:01.901Z,26.02
2022-07-27T01:24:09.143Z,25.94
2022-07-27T01:29:16.321Z,25.88
2022-07-27T01:34:23.568Z,25.82
2022-07-27T01:39:30.747Z,25.82
2022-07-27T01:44:37.964Z,25.79
2022-07-27T01:49:45.144Z,25.71
2022-07-27T01:54:52.346Z,25.67
2022-07-27T01:59:59.601Z,25.66
2022-07-27T02:05:06.908Z,25.62
2022-07-27T02:10:13.987Z,25.59
2022-07-27T02:15:21.155Z,25.56
2022-07-27T02:20:28.340Z,25.52
2022-07-27T02:25:35.558Z,25.48
2022-07-27T02:30:42.848Z,25.46
2022-07-27T02:35:50.084Z,25.49
2022-07-27T02:40:57.304Z,25.51
2022-07-27T02:46:04.569Z,25.44
2022-07-27T02:51:11.856Z,25.43
2022-07-27T02:56:19.052Z,25.40
2022-07-27T03:01:26.313Z,25.39
2022-07-27T03:06:33.425Z,25.35
2022-07-27T03:11:40.702Z,25.32
2022-07-27T03:16:47.872Z,25.32
2022-07-27T03:21:55.097Z,25.31
2022-07-27T03:27:02.317Z,25.29
2022-07-27T03:32:09.520Z,25.30
2022-07-27T03:37:16.704Z,25.37
2022-07-27T03:42:23.897Z,25.35
2022-07-27T03:47:31.104Z,25.30
2022-07-27T03:52:38.282Z,25.30
2022-07-27T03:57:45.476Z,25.32
2022-07-27T04:02:52.805Z,25.30
2022-07-27T04:07:59.855Z,25.22
2022-07-27T04:13:07.143Z,25.19
2022-07-27T04:18:14.423Z,25.19
2022-07-27T04:23:21.641Z,25.18
2022-07-27T04:28:28.863Z,25.23
2022-07-27T04:33:36.071Z,25.19
2022-07-27T04:38:43.348Z,25.16
2022-07-27T04:43:50.629Z,25.17
2022-07-27T04:48:57.979Z,25.19
2022-07-27T04:54:05.067Z,25.12
2022-07-27T04:59:12.768Z,25.12
2022-07-27T05:04:19.565Z,25.10
2022-07-27T05:09:26.669Z,25.08
2022-07-27T05:14:33.981Z,25.08
2022-07-27T05:19:41.198Z,25.09
2022-07-27T05:24:48.408Z,25.09
2022-07-27T05:29:55.616Z,25.13
2022-07-27T05:35:02.886Z,25.13
2022-07-27T05:40:10.030Z,25.09
2022-07-27T05:45:17.229Z,25.03
2022-07-27T05:50:24.471Z,25.10
2022-07-27T05:55:31.707Z,25.13
2022-07-27T06:00:38.986Z,25.21
2022-07-27T06:05:46.205Z,25.31
2022-07-27T06:10:53.390Z,25.34
2022-07-27T06:16:00.797Z,25.27
2022-07-27T06:21:07.959Z,25.25
2022-07-27T06:26:15.098Z,25.22
2022-07-27T06:31:22.351Z,25.23
2022-07-27T06:36:29.464Z,25.20
2022-07-27T06:41:36.722Z,25.21
2022-07-27T06:46:44.004Z,25.24
2022-07-27T06:51:51.175Z,25.25
2022-07-27T06:56:58.403Z,25.24
2022-07-27T07:02:05.659Z,25.27
2022-07-27T07:07:12.908Z,25.32
2022-07-27T07:12:20.096Z,25.36
2022-07-27T07:17:27.302Z,25.41
2022-07-27T07:22:34.497Z,25.42
2022-07-27T07:27:41.717Z,25.41
2022-07-27T07:32:48.947Z,25.40
2022-07-27T07:37:56.133Z,25.40
2022-07-27T07:43:03.479Z,25.46
2022-07-27T07:48:10.722Z,25.46
2022-07-27T07:53:17.958Z,25.43
2022-07-27T07:58:25.235Z,25.52
2022-07-27T08:03:32.561Z,25.49
2022-07-27T08:08:39.668Z,25.54
2022-07-27T08:13:46.910Z,25.55
2022-07-27T08:18:54.241Z,25.59
2022-07-27T08:24:01.443Z,25.40
2022-07-27T08:29:13.567Z,25.43
2022-07-27T08:34:15.935Z,25.44
2022-07-27T08:40:05.833Z,25.54
2022-07-27T08:44:30.341Z,25.50
2022-07-27T08:49:43.485Z,25.39
2022-07-27T08:54:44.889Z,25.40
2022-07-27T08:59:52.132Z,25.57
2022-07-27T09:04:59.349Z,25.67
2022-07-27T09:10:06.564Z,25.78
2022-07-27T09:15:13.723Z,25.91
2022-07-27T09:20:21.126Z,25.97
2022-07-27T09:26:00.479Z,26.00
2022-07-27T09:30:35.412Z,26.09
2022-07-27T09:35:42.600Z,26.15
2022-07-27T09:40:49.810Z,26.17
2022-07-27T09:45:57.125Z,26.18
2022-07-27T09:51:32.928Z,26.22
2022-07-27T09:56:11.431Z,26.27
2022-07-27T10:01:18.767Z,26.31
2022-07-27T10:06:25.793Z,26.33
2022-07-27T10:11:32.989Z,26.35
2022-07-27T10:16:40.248Z,26.38
2022-07-27T10:21:47.476Z,26.38
2022-07-27T10:26:54.676Z,26.43
2022-07-27T10:32:01.948Z,26.43
2022-07-27T10:37:09.115Z,26.46
2022-07-27T10:42:16.364Z,26.49
2022-07-27T10:47:23.637Z,26.54
2022-07-27T10:52:30.879Z,26.57
2022-07-27T10:57:38.180Z,26.60
2022-07-27T11:02:45.390Z,26.62
2022-07-27T11:08:34.612Z,26.65
2022-07-27T11:13:05.361Z,26.69
2022-07-27T11:18:07.200Z,26.72
2022-07-27T11:23:50.004Z,26.76
2022-07-27T11:28:21.622Z,26.75
2022-07-27T11:33:28.870Z,26.77
2022-07-27T11:38:36.051Z,26.81
2022-07-27T11:43:45.545Z,26.82
2022-07-27T11:49:05.966Z,26.86
2022-07-27T11:53:57.786Z,26.87
2022-07-27T11:59:04.986Z,26.90
2022-07-27T12:04:12.214Z,26.92
2022-07-27T12:09:19.400Z,27.00
2022-07-27T12:14:26.632Z,27.00
2022-07-27T12:19:33.821Z,27.02
2022-07-27T12:24:41.044Z,27.05
2022-07-27T12:29:48.222Z,27.09
2022-07-27T12:34:55.422Z,27.11
2022-07-27T12:40:02.710Z,27.14
2022-07-27T12:45:09.831Z,27.17
2022-07-27T12:50:17.092Z,27.21
2022-07-27T12:55:24.280Z,27.25
2022-07-27T13:00:34.071Z,27.24
2022-07-27T13:05:38.819Z,27.27
2022-07-27T13:10:46.111Z,27.28
2022-07-27T13:15:54.103Z,27.27
2022-07-27T13:21:01.326Z,27.29
2022-07-27T13:26:08.531Z,27.28
2022-07-27T13:31:15.875Z,27.29
2022-07-27T13:36:23.027Z,27.30
2022-07-27T13:41:30.536Z,27.30
2022-07-27T13:46:37.776Z,27.32
2022-07-27T13:51:45.073Z,27.35
2022-07-27T13:56:52.338Z,27.38
2022-07-27T14:01:59.781Z,27.40
2022-07-27T14:07:06.827Z,27.42
2022-07-27T14:12:14.068Z,27.43
2022-07-27T14:17:21.322Z,27.45
2022-07-27T14:22:28.538Z,27.46
2022-07-27T14:27:36.883Z,27.47
2022-07-27T14:32:42.947Z,27.47
2022-07-27T14:37:50.206Z,27.49
2022-07-27T14:42:57.453Z,27.52
2022-07-27T14:48:04.693Z,27.52
2022-07-27T14:53:11.890Z,27.54
2022-07-27T14:58:19.146Z,27.56
2022-07-27T15:03:26.370Z,27.55
2022-07-27T15:08:33.630Z,27.56
2022-07-27T15:13:40.791Z,27.57
2022-07-27T15:18:48.023Z,27.56
2022-07-27T15:23:55.191Z,27.56
2022-07-27T15:29:02.380Z,27.56
2022-07-27T15:34:09.567Z,27.57
2022-07-27T15:39:17.100Z,27.57
2022-07-27T15:44:24.028Z,27.59
2022-07-27T15:49:31.300Z,27.59
2022-07-27T15:54:45.111Z,27.60
2022-07-27T15:59:45.656Z,27.63
2022-07-27T16:04:52.894Z,27.62
2022-07-27T16:10:00.168Z,27.63
2022-07-27T16:15:07.366Z,27.64
2022-07-27T16:20:14.646Z,27.65
2022-07-27T16:25:30.646Z,27.65
2022-07-27T16:30:29.237Z,27.67
2022-07-27T16:35:36.508Z,27.69
2022-07-27T16:40:43.695Z,27.69
2022-07-27T16:45:50.873Z,27.74
2022-07-27T16:50:58.095Z,27.75
2022-07-27T16:56:05.325Z,27.78
2022-07-27T17:01:21.915Z,27.78
2022-07-27T17:06:19.777Z,27.83
2022-07-27T17:11:26.989Z,27.89
2022-07-27T17:16:34.329Z,27.89
2022-07-27T17:21:41.467Z,27.90
2022-07-27T17:26:48.657Z,27.92
2022-07-27T17:31:55.911Z,27.94
2022-07-27T17:37:03.084Z,27.94
2022-07-27T17:42:10.305Z,27.95
2022-07-27T17:47:17.575Z,27.98
2022-07-27T17:52:24.770Z,27.96
2022-07-27T17:57:32.059Z,27.94
2022-07-27T18:02:39.246Z,27.92
2022-07-27T18:07:46.423Z,27.90
2022-07-27T18:12:53.615Z,27.82
2022-07-27T18:18:00.833Z,27.83
2022-07-27T18:23:08.084Z,27.83
2022-07-27T18:28:15.392Z,27.82
2022-07-27T18:33:22.610Z,27.79
2022-07-27T18:38:29.870Z,27.76
2022-07-27T18:43:37.166Z,27.74
2022-07-27T18:48:44.663Z,27.69
2022-07-27T18:53:51.887Z,27.75
2022-07-27T18:58:59.151Z,27.77
2022-07-27T19:04:06.448Z,27.74
2022-07-27T19:09:13.944Z,27.74
2022-07-27T19:14:20.830Z,27.64
2022-07-27T19:19:28.373Z,27.64
2022-07-27T19:24:35.294Z,27.67
2022-07-27T19:29:42.516Z,27.64
2022-07-27T19:34:49.787Z,27.66
2022-07-27T19:40:05.668Z,27.67
2022-07-27T19:45:04.263Z,27.66
2022-07-27T19:50:11.454Z,27.67
2022-07-27T19:55:18.753Z,27.60
2022-07-27T20:00:26.026Z,27.56
2022-07-27T20:05:33.222Z,27.53
2022-07-27T20:10:40.468Z,27.49
2022-07-27T20:15:47.672Z,27.42
2022-07-27T20:20:54.937Z,27.45
2022-07-27T20:26:02.161Z,27.39
2022-07-27T20:31:09.519Z,27.39
2022-07-27T20:36:16.625Z,27.25
2022-07-27T20:41:23.869Z,27.27
2022-07-27T20:46:32.296Z,27.24
2022-07-27T20:51:39.361Z,27.21
2022-07-27T20:56:46.565Z,27.23
2022-07-27T21:01:53.876Z,27.09
2022-07-27T21:07:01.027Z,27.12
2022-07-27T21:12:08.206Z,27.11
2022-07-27T21:17:15.409Z,26.98
2022-07-27T21:22:22.699Z,26.99
2022-07-27T21:27:29.948Z,26.92
2022-07-27T21:32:37.193Z,26.82
2022-07-27T21:37:44.492Z,26.83
2022-07-27T21:42:51.763Z,26.76
2022-07-27T21:47:58.986Z,26.72
2022-07-27T21:53:07.061Z,26.70
2022-07-27T21:58:14.270Z,26.60
2022-07-27T22:03:21.462Z,26.51
2022-07-27T22:08:28.713Z,26.44
2022-07-27T22:13:37.020Z,26.47
2022-07-27T22:18:44.307Z,26.47
2022-07-27T22:23:51.525Z,26.38
2022-07-27T22:28:58.763Z,26.32
2022-07-27T22:34:06.022Z,26.16
2022-07-27T22:39:13.440Z,26.15
2022-07-27T22:44:20.710Z,25.96
2022-07-27T22:49:27.982Z,25.91
2022-07-27T22:54:35.205Z,25.87
2022-07-27T22:59:42.408Z,25.94
2022-07-27T23:04:49.708Z,25.89
2022-07-27T23:09:57.192Z,25.89
2022-07-27T23:15:04.127Z,25.85
2022-07-27T23:20:11.308Z,25.90
2022-07-27T23:25:18.558Z,26.00
2022-07-27T23:30:25.878Z,26.05
2022-07-27T23:35:33.193Z,25.93
2022-07-27T23:40:40.461Z,25.81
2022-07-27T23:45:47.698Z,25.76
2022-07-27T23:50:54.985Z,25.69
2022-07-27T23:56:02.190Z,25.68
